Airfield :
LOGIN :

Register | Disclaimer

   EN    FR    IT 

 










Legend :    VFR   Marginal VFR   IFR   Intensive IFR   Very Intensive IFR
Visi :
Ceiling :
>= 8 km
>= 3000ft
5 to 8 km
1000 to 3000 ft
1500m to 5 km
500 to 1000 ft
800 to 1500m
200 to 500 ft
< 800m
< 200 ft
Symbols :   Thunderstorms  Fog  Heavy snow  Heavy precipitations  Wind > 20 kt
SIGMETs :     Misc.  Thunderstorms  Icing  Turbulence  Mountain Waves  Volcanic Ashes






- Airport Elevation : 242 ft
- IATA code : DUB


EIDW - Dublin

CURRENT METAR :
  • 060500Z 22011KT 190V260 9999 FEW022 SCT070 08/05 Q1005 NOSIG

EXPIRED METARs :
  • 060430Z 24010KT 200V270 9999 FEW020 SCT060 08/05 Q1004 NOSIG
  • 060400Z 22012KT 190V260 9999 FEW018 SCT045 09/06 Q1003 NOSIG
  • 060330Z 22013G23KT 200V260 9999 FEW024 SCT050 09/05 Q1003 NOSIG
  • 060300Z 22014G27KT 190V260 9999 FEW024 BKN036 09/06 Q1002 NOSIG
  • 060230Z 21015KT 9999 FEW020 SCT039 09/06 Q1001 NOSIG

TAF TAF EIDW
Valid from the 06 at 00:00 until the 07 at 00:00 UTC


052300Z 0600/0624 22010KT 9999 FEW020 BKN040
TEMPO 0600/0612 24015G25KT
PROB30
TEMPO 0600/0605 -SHRA BKN014
PROB40
TEMPO 0610/0616 -SHRA FEW018CB
BECMG 0617/0619 26005KT
BECMG 0621/0623 20005KT



MET'MAP, your aeronautical weather chart ! - Copyright ORBIFLY December 2007 - Disclaimer

ORBIFLY MET'MAP TEAM :

Programming & Development : Alexandra Zaïnal
Concept & original design : Baudouin d'Aumeries
Assistance for programming : Marc-Olivier Méhu
Technical & hardware support : Manuel Goepfert

Contact : metmap@orbifly.com




SOURCES & CREDITS :

   NOAA